Dycusburg, Kentucky
Current Conditions -  °F | °C
As of 8:35 PM on Wednesday 22 Oct 2014 (Local Time) from K5M9 Reporting Station
Clear Clear  
Wind Chill: 47°   Ceiling: Unl
Heat Index: 47°   Visibility: 10mi
Dew Point: 40°   Wind: 3mph
Humidity: 78%   Direction: 60°ENE
Pressure: 30.22"   Gusts: NA
Location:  37.16°N, 88.18°W
Report Text: K5M9 230135Z AUTO 06003KT 10SM CLR 08/05 A3022 RMK AO2 T00840047
Loading
Personal Weather Stations






























Interactive Weather Map
Tropical Storm Tracking
New forecast layout! Learn more

10-Day Weather Forecast

Advertisements
Track Severe Weather on mobile